Time;durP1;ratioP1;P1;durP2;ratioP2;P2;SDS_P1;SDS_P2;PMS_P1;PMS_P2;Temp;Humidity;BMP_temperature;BMP_pressure;BME280_temperature;BME280_humidity;BME280_pressure;Samples;Min_cycle;Max_cycle;Signal;HPM_P1;HPM_P2
2022/05/13 00:00:33;;;;;;;8.10;6.87;;;;;;;21.57;66.05;97742.06;4993344;28;20200;-71
2022/05/13 00:02:59;;;;;;;9.00;7.70;;;;;;;21.65;65.89;97745.56;5010021;28;20483;-70
2022/05/13 00:05:24;;;;;;;8.93;7.00;;;;;;;21.61;65.84;97748.66;5011166;28;20188;-72
2022/05/13 00:07:50;;;;;;;7.47;6.73;;;;;;;21.55;65.96;97733.44;5010767;28;20180;-71
2022/05/13 00:10:16;;;;;;;8.70;6.80;;;;;;;21.67;65.93;97732.84;5010888;28;20612;-75
2022/05/13 00:12:41;;;;;;;7.20;6.57;;;;;;;21.61;66.08;97738.00;4993580;28;20176;-71
2022/05/13 00:15:15;;;;;;;8.70;6.80;;;;;;;21.60;66.32;97733.69;5010633;28;20199;-71
2022/05/13 00:17:41;;;;;;;7.57;6.80;;;;;;;21.63;66.05;97730.59;4993047;28;20184;-70
2022/05/13 00:20:07;;;;;;;6.90;6.20;;;;;;;21.55;66.35;97725.44;5010795;28;20827;-71
2022/05/13 00:22:33;;;;;;;7.80;6.73;;;;;;;21.65;66.47;97734.91;5010660;28;20608;-71
2022/05/13 00:24:59;;;;;;;7.60;6.90;;;;;;;21.63;65.94;97733.28;5004473;28;20449;-71
2022/05/13 00:27:25;;;;;;;6.70;6.20;;;;;;;21.67;64.61;97728.31;5010418;28;20204;-70
2022/05/13 00:29:51;;;;;;;6.90;6.30;;;;;;;21.72;64.82;97727.69;5011071;28;20192;-69
2022/05/13 00:32:17;;;;;;;9.53;7.67;;;;;;;21.76;65.00;97734.25;4992815;28;20934;-71
2022/05/13 00:34:43;;;;;;;6.63;6.13;;;;;;;21.69;65.78;97728.09;5010698;28;20439;-71
2022/05/13 00:37:08;;;;;;;8.73;7.70;;;;;;;21.71;65.72;97731.38;4992935;28;20437;-72
2022/05/13 00:39:34;;;;;;;8.07;7.37;;;;;;;21.66;66.00;97728.53;5016558;28;20184;-70
2022/05/13 00:42:11;;;;;;;7.80;6.57;;;;;;;21.61;65.96;97727.31;5010739;28;20262;-72
2022/05/13 00:44:37;;;;;;;9.77;6.90;;;;;;;21.63;66.08;97733.28;4993167;28;20564;-72
2022/05/13 00:47:04;;;;;;;8.90;8.10;;;;;;;21.53;66.12;97724.88;5009980;28;20489;-70
2022/05/13 00:49:31;;;;;;;12.40;8.80;;;;;;;21.52;66.58;97717.06;5010456;28;20212;-72
2022/05/13 00:51:57;;;;;;;9.97;7.20;;;;;;;21.48;66.27;97722.00;4976759;28;20435;-70
2022/05/13 00:54:23;;;;;;;11.23;7.73;;;;;;;21.52;66.28;97722.41;4992694;28;20446;-71
2022/05/13 00:56:48;;;;;;;8.03;7.23;;;;;;;21.54;66.33;97718.50;5010157;28;20420;-71
2022/05/13 00:59:18;;;;;;;7.17;6.47;;;;;;;21.53;66.58;97714.19;5010243;28;20189;-72
2022/05/13 01:01:44;;;;;;;13.73;8.60;;;;;;;21.48;66.39;97712.13;4993049;28;20212;-72
2022/05/13 01:04:12;;;;;;;12.97;8.47;;;;;;;21.23;67.45;97717.34;5010272;28;20954;-71
2022/05/13 01:06:41;;;;;;;8.87;7.67;;;;;;;21.11;67.92;97711.03;4992784;28;20191;-71
2022/05/13 01:09:06;;;;;;;8.00;6.80;;;;;;;21.23;67.54;97712.03;4992400;28;20493;-72
2022/05/13 01:11:33;;;;;;;11.97;6.90;;;;;;;21.33;67.20;97715.06;5010596;28;20903;-70
2022/05/13 01:14:02;;;;;;;10.60;7.40;;;;;;;21.36;67.03;97713.00;5011471;28;20208;-72
2022/05/13 01:16:28;;;;;;;8.47;7.03;;;;;;;21.38;66.75;97701.09;4991269;28;20862;-72
2022/05/13 01:18:53;;;;;;;8.80;7.40;;;;;;;21.44;66.95;97699.44;5013758;28;20427;-71
2022/05/13 01:21:25;;;;;;;11.00;7.90;;;;;;;21.25;66.98;97709.13;4996475;28;20208;-71
2022/05/13 01:23:52;;;;;;;9.80;8.60;;;;;;;21.21;67.83;97702.59;5011175;28;20212;-71
2022/05/13 01:26:20;;;;;;;17.90;8.20;;;;;;;21.17;67.56;97694.22;5013438;28;20439;-72
2022/05/13 01:28:50;;;;;;;8.67;7.87;;;;;;;21.13;68.09;97677.00;5013662;28;20444;-73
2022/05/13 01:31:25;;;;;;;10.43;7.70;;;;;;;21.03;68.34;97682.75;5013629;28;20423;-71
2022/05/13 01:33:51;;;;;;;9.10;7.33;;;;;;;21.10;68.77;97690.72;4995809;28;20977;-71
2022/05/13 01:36:17;;;;;;;8.80;7.90;;;;;;;21.18;68.17;97701.16;5013111;28;20510;-72
2022/05/13 01:38:43;;;;;;;9.50;8.07;;;;;;;21.15;68.53;97705.06;4996212;28;20203;-72
2022/05/13 01:41:10;;;;;;;8.00;7.20;;;;;;;21.21;68.57;97700.75;5013140;28;20270;-72
2022/05/13 01:43:35;;;;;;;9.63;8.43;;;;;;;21.15;68.39;97688.28;4996016;28;20238;-71
2022/05/13 01:46:02;;;;;;;12.87;8.03;;;;;;;21.17;68.33;97695.03;5013116;28;20471;-73
2022/05/13 01:48:28;;;;;;;7.73;7.03;;;;;;;21.23;68.44;97708.53;4995528;28;20173;-71
2022/05/13 01:50:54;;;;;;;9.13;8.23;;;;;;;21.14;68.52;97707.94;4995340;28;20423;-71
2022/05/13 01:53:19;;;;;;;10.60;7.63;;;;;;;21.21;68.58;97715.94;5012769;28;20467;-72
2022/05/13 01:55:45;;;;;;;15.20;8.17;;;;;;;21.22;68.62;97729.03;4995941;28;20330;-73
2022/05/13 01:58:12;;;;;;;11.50;8.70;;;;;;;21.24;68.76;97739.47;4995768;28;20542;-72
2022/05/13 02:00:39;;;;;;;9.10;8.20;;;;;;;21.26;67.97;97735.59;5013211;28;20208;-71
2022/05/13 02:05:48;;;;;;;10.63;7.73;;;;;;;21.21;68.45;97726.59;5013212;28;20442;-72
2022/05/13 02:08:15;;;;;;;9.30;8.23;;;;;;;21.10;67.97;97738.69;4978575;28;20432;-73
2022/05/13 02:10:42;;;;;;;10.60;8.50;;;;;;;21.01;67.98;97738.91;5013167;28;20577;-71
2022/05/13 02:13:07;;;;;;;12.23;8.70;;;;;;;20.98;68.14;97752.63;5012809;28;20455;-71
2022/05/13 02:15:33;;;;;;;10.20;8.47;;;;;;;20.97;68.81;97732.34;5012568;28;20799;-71
2022/05/13 02:17:59;;;;;;;11.20;7.87;;;;;;;20.97;68.67;97720.88;4994951;28;20193;-71
2022/05/13 02:20:24;;;;;;;12.40;8.70;;;;;;;20.98;68.73;97710.00;5012679;28;20298;-70
2022/05/13 02:22:50;;;;;;;8.93;7.93;;;;;;;20.96;68.57;97735.22;4995114;28;20746;-69
2022/05/13 02:25:15;;;;;;;10.77;6.97;;;;;;;20.94;68.20;97738.09;4994824;28;20234;-72
2022/05/13 02:27:41;;;;;;;12.60;6.80;;;;;;;20.92;67.62;97720.69;5003541;28;20290;-71
2022/05/13 02:30:07;;;;;;;7.03;6.20;;;;;;;20.86;67.51;97714.31;5012527;28;20195;-71
2022/05/13 02:32:33;;;;;;;14.43;7.63;;;;;;;20.87;67.23;97710.66;5012224;28;20199;-72
2022/05/13 02:34:58;;;;;;;6.37;5.73;;;;;;;20.87;67.30;97711.44;5013116;28;20439;-70
2022/05/13 02:37:24;;;;;;;8.60;6.30;;;;;;;20.92;67.07;97710.81;4978481;28;20199;-71
2022/05/13 02:39:49;;;;;;;7.80;6.03;;;;;;;20.97;66.73;97724.34;5012418;28;20204;-73
2022/05/13 02:42:15;;;;;;;7.00;6.20;;;;;;;20.89;66.09;97727.25;4994579;28;20287;-71
2022/05/13 02:44:41;;;;;;;7.43;5.97;;;;;;;20.80;65.43;97720.47;4995378;28;20275;-71
2022/05/13 02:47:06;;;;;;;7.00;5.83;;;;;;;20.83;65.52;97720.06;5011915;28;20214;-73
2022/05/13 02:49:32;;;;;;;6.70;6.03;;;;;;;20.76;66.72;97721.91;5012576;28;20205;-71
2022/05/13 02:51:57;;;;;;;10.63;6.77;;;;;;;20.70;66.50;97716.34;5012369;28;20185;-72
2022/05/13 02:54:23;;;;;;;8.80;6.00;;;;;;;20.72;67.30;97711.63;5012597;28;20549;-72
2022/05/13 02:56:48;;;;;;;15.90;6.37;;;;;;;20.77;67.69;97723.56;5012289;28;20189;-71
2022/05/13 02:59:13;;;;;;;7.83;7.03;;;;;;;20.84;67.79;97719.88;5012832;28;20215;-71
2022/05/13 03:01:39;;;;;;;9.83;6.83;;;;;;;20.81;67.31;97722.94;5012345;28;20204;-73
2022/05/13 03:04:05;;;;;;;12.30;6.83;;;;;;;20.80;67.69;97721.31;5011857;28;20715;-70
2022/05/13 03:06:30;;;;;;;10.63;7.40;;;;;;;20.70;67.27;97719.00;5015167;28;20192;-71
2022/05/13 03:08:56;;;;;;;7.53;6.50;;;;;;;20.60;68.13;97715.94;5012438;28;20184;-71
2022/05/13 03:11:22;;;;;;;8.80;6.60;;;;;;;20.60;67.90;97715.94;5012065;28;20590;-72
2022/05/13 03:13:49;;;;;;;10.60;6.47;;;;;;;20.73;67.97;97720.44;5012272;28;20513;-71
2022/05/13 03:16:20;;;;;;;8.20;6.47;;;;;;;20.75;68.00;97718.41;5011123;28;20744;-71
2022/05/13 03:18:47;;;;;;;9.00;6.50;;;;;;;20.71;68.14;97719.84;4997159;28;20431;-71
2022/05/13 03:21:12;;;;;;;12.93;8.33;;;;;;;20.72;67.85;97713.50;4992295;28;20463;-72
2022/05/13 03:23:42;;;;;;;9.73;7.10;;;;;;;20.60;68.55;97709.81;5011553;28;20961;-71
2022/05/13 03:26:08;;;;;;;9.40;7.47;;;;;;;20.65;67.97;97715.31;5011428;28;20655;-71
2022/05/13 03:28:34;;;;;;;16.23;7.67;;;;;;;20.63;67.74;97720.03;5011378;28;20419;-71
2022/05/13 03:31:00;;;;;;;9.77;6.60;;;;;;;20.62;68.47;97713.06;5011379;28;20419;-70
2022/05/13 03:33:25;;;;;;;11.37;6.83;;;;;;;20.52;68.74;97708.16;5010831;28;20367;-72
2022/05/13 03:35:51;;;;;;;8.33;6.33;;;;;;;20.33;69.29;97710.59;4977410;28;20191;-72
2022/05/13 03:38:23;;;;;;;9.13;7.30;;;;;;;20.46;69.49;97703.63;5008960;28;20220;-73
2022/05/13 03:40:49;;;;;;;8.73;6.10;;;;;;;20.54;69.07;97711.44;4999295;28;20219;-71
2022/05/13 03:43:14;;;;;;;7.90;7.03;;;;;;;20.61;68.72;97706.09;5010669;28;20456;-71
2022/05/13 03:45:40;;;;;;;8.37;7.40;;;;;;;20.70;68.62;97711.03;5011303;28;20268;-71
2022/05/13 03:48:06;;;;;;;8.13;6.73;;;;;;;20.75;68.35;97718.41;5009556;28;20222;-70
2022/05/13 03:50:32;;;;;;;10.07;6.83;;;;;;;20.71;68.24;97720.66;5010261;28;20180;-70
2022/05/13 03:52:59;;;;;;;10.40;6.50;;;;;;;20.70;68.56;97727.00;5011198;28;20223;-72
2022/05/13 03:55:25;;;;;;;8.63;6.97;;;;;;;20.68;68.26;97734.38;5011240;28;20420;-72
2022/05/13 03:57:50;;;;;;;8.00;7.20;;;;;;;20.59;68.79;97735.59;5005343;28;21001;-70
2022/05/13 04:00:16;;;;;;;9.23;6.77;;;;;;;20.56;69.07;97731.50;5010639;28;20370;-72
2022/05/13 04:02:42;;;;;;;8.83;6.63;;;;;;;20.64;68.92;97732.31;5009952;28;20571;-70
2022/05/13 04:10:37;;;;;;;13.53;7.40;;;;;;;20.58;67.47;97717.97;5010664;28;20427;-71
2022/05/13 04:16:04;;;;;;;10.23;6.67;;;;;;;20.62;68.33;97719.22;5017051;28;20219;-70
2022/05/13 04:18:31;;;;;;;7.73;6.10;;;;;;;20.66;67.23;97719.63;5008704;28;21004;-70
2022/05/13 04:20:57;;;;;;;11.83;5.70;;;;;;;20.76;66.59;97716.59;4993241;28;20475;-70
2022/05/13 04:23:23;;;;;;;7.10;6.17;;;;;;;20.75;66.98;97709.63;5010497;28;21024;-70
2022/05/13 04:25:49;;;;;;;8.00;6.70;;;;;;;20.74;66.99;97715.94;5016428;28;20271;-72
2022/05/13 04:28:14;;;;;;;8.47;5.73;;;;;;;20.70;67.92;97715.53;4992988;28;20208;-72
2022/05/13 04:30:40;;;;;;;10.73;6.30;;;;;;;20.75;67.44;97720.28;5010608;28;20247;-71
2022/05/13 04:33:06;;;;;;;11.43;6.57;;;;;;;20.79;67.34;97725.00;5010015;28;20751;-72
2022/05/13 04:35:31;;;;;;;7.50;5.80;;;;;;;20.76;66.71;97729.91;5009841;28;20571;-72
2022/05/13 04:37:57;;;;;;;7.37;5.40;;;;;;;20.72;65.65;97729.47;5010412;28;20677;-71
2022/05/13 04:40:22;;;;;;;6.30;5.37;;;;;;;20.66;65.05;97730.28;5008977;28;20212;-72
2022/05/13 04:42:51;;;;;;;6.17;5.57;;;;;;;20.59;64.68;97734.78;5010435;28;20248;-72
2022/05/13 04:45:25;;;;;;;5.93;5.10;;;;;;;20.62;64.88;97737.03;5010932;28;20557;-71
2022/05/13 04:50:40;;;;;;;5.50;5.00;;;;;;;20.67;65.24;97748.69;5017442;28;20454;-71
2022/05/13 04:53:07;;;;;;;5.47;4.97;;;;;;;20.77;64.67;97747.53;4982028;28;20826;-72
2022/05/13 04:55:32;;;;;;;11.60;5.60;;;;;;;20.82;64.40;97753.03;5017302;28;20502;-70
2022/05/13 04:57:58;;;;;;;9.43;4.33;;;;;;;20.83;64.28;97752.84;5014627;28;20435;-70
2022/05/13 05:00:23;;;;;;;9.20;5.70;;;;;;;20.80;63.83;97747.09;5014625;28;20204;-70
2022/05/13 05:02:49;;;;;;;10.57;6.57;;;;;;;20.76;65.79;97751.22;5013460;28;20274;-71
2022/05/13 05:05:15;;;;;;;8.20;6.10;;;;;;;20.72;66.94;97748.94;5014444;28;20188;-73
2022/05/13 05:07:40;;;;;;;10.20;5.97;;;;;;;20.70;67.29;97764.28;5016170;28;20324;-71
2022/05/13 05:10:07;;;;;;;7.63;6.50;;;;;;;20.69;67.58;97770.63;5015967;28;20196;-71
2022/05/13 05:12:32;;;;;;;7.00;6.27;;;;;;;20.65;67.74;97761.44;5015290;28;20733;-70
2022/05/13 05:14:58;;;;;;;8.60;6.93;;;;;;;20.71;67.84;97765.13;4998391;28;20447;-68
2022/05/13 05:17:23;;;;;;;10.83;7.20;;;;;;;20.69;68.02;97761.84;5015531;28;20575;-71
2022/05/13 05:19:49;;;;;;;10.57;6.23;;;;;;;20.68;68.41;97771.66;5016437;28;20184;-70
2022/05/13 05:22:15;;;;;;;7.33;6.63;;;;;;;20.76;67.78;97775.19;4995630;28;20192;-71
2022/05/13 05:24:40;;;;;;;9.90;6.73;;;;;;;20.59;68.05;97762.22;5000935;28;20207;-71
2022/05/13 05:27:09;;;;;;;10.83;6.30;;;;;;;20.64;68.57;97767.78;5016320;28;20193;-72
2022/05/13 05:29:36;;;;;;;6.70;6.00;;;;;;;20.67;68.46;97769.19;5014628;28;20662;-72
2022/05/13 05:32:02;;;;;;;12.47;6.70;;;;;;;20.65;68.46;97761.44;5012417;28;20455;-71
2022/05/13 05:34:27;;;;;;;9.80;6.73;;;;;;;20.57;68.40;97756.28;5014824;28;21048;-72
2022/05/13 05:36:53;;;;;;;8.60;6.23;;;;;;;20.49;68.89;97757.28;5015251;28;20435;-72
2022/05/13 05:39:18;;;;;;;7.00;6.20;;;;;;;20.56;68.75;97762.63;5006946;28;20192;-71
2022/05/13 05:41:44;;;;;;;6.60;5.90;;;;;;;20.65;68.71;97769.41;5013271;28;20220;-72
2022/05/13 05:44:09;;;;;;;7.23;6.27;;;;;;;20.66;68.58;97773.72;4969574;28;20687;-71
2022/05/13 05:46:35;;;;;;;6.50;5.90;;;;;;;20.71;68.20;97776.56;5009145;28;20195;-71
2022/05/13 05:49:00;;;;;;;7.30;6.57;;;;;;;20.71;68.53;97776.56;5010466;28;20659;-72
2022/05/13 05:51:25;;;;;;;7.83;6.00;;;;;;;20.74;67.47;97763.88;5013658;28;20184;-71
2022/05/13 05:59:19;;;;;;;7.20;4.80;;;;;;;20.77;65.47;97784.81;5013008;28;20439;-70
2022/05/13 06:01:46;;;;;;;5.00;4.50;;;;;;;20.79;65.08;97782.78;5014368;28;20475;-70
2022/05/13 06:04:11;;;;;;;5.60;4.90;;;;;;;20.84;64.88;97785.63;5016376;28;20815;-70
2022/05/13 06:06:37;;;;;;;10.53;5.00;;;;;;;20.77;65.43;97784.81;5008546;28;20435;-70
2022/05/13 06:09:03;;;;;;;8.27;4.70;;;;;;;20.84;64.97;97788.28;5012263;28;20192;-70
2022/05/13 06:11:28;;;;;;;6.80;4.70;;;;;;;20.80;65.04;97789.72;4978862;28;20180;-69
2022/05/13 06:13:55;;;;;;;8.87;4.87;;;;;;;20.78;65.09;97800.59;4995179;28;20478;-69
2022/05/13 06:16:22;;;;;;;6.00;4.80;;;;;;;20.71;64.54;97794.41;5012419;28;20792;-73
2022/05/13 06:18:48;;;;;;;12.03;4.43;;;;;;;20.72;64.30;97802.19;5012516;28;20439;-70
2022/05/13 06:21:13;;;;;;;8.17;4.60;;;;;;;20.80;63.83;97803.03;4994812;28;20869;-69
2022/05/13 06:23:39;;;;;;;7.13;4.77;;;;;;;20.79;64.34;97804.09;5000475;28;20212;-70
2022/05/13 06:26:05;;;;;;;9.60;5.17;;;;;;;20.72;64.23;97791.53;5012634;28;20188;-68
2022/05/13 06:28:31;;;;;;;11.30;5.23;;;;;;;20.70;64.69;97796.25;5012556;28;20968;-69
2022/05/13 06:30:57;;;;;;;8.93;4.83;;;;;;;20.75;64.21;97794.84;4995068;28;20195;-70
2022/05/13 06:33:22;;;;;;;15.63;5.30;;;;;;;20.82;63.99;97798.31;5011862;28;20443;-70
2022/05/13 06:35:48;;;;;;;13.60;5.13;;;;;;;20.86;64.30;97804.91;5012690;28;20567;-71
2022/05/13 06:38:20;;;;;;;5.43;4.93;;;;;;;20.95;62.77;97801.00;5012189;28;20276;-70
2022/05/13 06:40:47;;;;;;;9.20;5.53;;;;;;;21.07;62.78;97803.88;5012488;28;20220;-70
2022/05/13 06:43:12;;;;;;;5.50;4.93;;;;;;;21.10;62.64;97807.97;5011989;28;20448;-71
2022/05/13 06:45:38;;;;;;;7.60;5.27;;;;;;;21.14;63.74;97811.88;5011339;28;20506;-70
2022/05/13 06:48:05;;;;;;;8.93;5.23;;;;;;;21.17;63.22;97806.16;5009524;28;20187;-70
2022/05/13 06:50:32;;;;;;;8.07;5.57;;;;;;;21.19;63.20;97801.41;5012592;28;20212;-70
2022/05/13 06:52:57;;;;;;;7.63;4.43;;;;;;;21.18;63.12;97802.41;5012035;28;20525;-71
2022/05/13 06:55:23;;;;;;;7.27;4.60;;;;;;;21.24;63.09;97806.94;5008894;28;20467;-71
2022/05/13 06:57:49;;;;;;;8.17;4.47;;;;;;;21.27;62.39;97816.38;5008306;28;20338;-70
2022/05/13 07:00:15;;;;;;;7.80;4.33;;;;;;;21.24;61.30;97814.94;5008680;28;20537;-70
2022/05/13 07:02:41;;;;;;;9.00;4.33;;;;;;;21.28;61.56;97818.84;4991301;28;20184;-70
2022/05/13 07:05:09;;;;;;;6.50;4.17;;;;;;;21.32;61.89;97819.25;5008327;28;20447;-70
2022/05/13 07:07:35;;;;;;;7.07;3.97;;;;;;;21.28;62.33;97816.19;5010884;28;20442;-69
2022/05/13 07:10:01;;;;;;;4.93;3.50;;;;;;;21.28;61.55;97813.50;4993381;28;20428;-70
2022/05/13 07:12:26;;;;;;;7.90;3.90;;;;;;;21.30;60.38;97821.28;5011139;28;20188;-71
2022/05/13 07:14:53;;;;;;;12.63;4.70;;;;;;;21.32;59.16;97828.03;5010880;28;20212;-70
2022/05/13 07:17:19;;;;;;;6.50;2.87;;;;;;;21.24;59.11;97827.44;5010387;28;20263;-70
2022/05/13 07:19:45;;;;;;;8.30;3.83;;;;;;;21.28;58.93;97834.84;5012549;28;20465;-70
2022/05/13 07:22:10;;;;;;;6.77;3.63;;;;;;;21.30;59.30;97839.94;4993160;28;20189;-69
2022/05/13 07:24:36;;;;;;;7.97;4.80;;;;;;;21.24;59.75;97830.94;5015150;28;20586;-69
2022/05/13 07:27:01;;;;;;;7.30;4.17;;;;;;;21.27;59.85;97837.69;5010735;28;20215;-70
2022/05/13 07:29:27;;;;;;;5.40;3.53;;;;;;;21.27;59.86;97841.19;4980678;28;20184;-70
2022/05/13 07:31:52;;;;;;;13.07;4.03;;;;;;;21.07;61.88;97843.00;5010575;28;20193;-69
2022/05/13 07:34:18;;;;;;;5.90;4.90;;;;;;;21.04;64.11;97840.78;5010718;28;20275;-69
2022/05/13 07:36:44;;;;;;;17.83;4.30;;;;;;;20.98;65.13;97845.09;5011554;28;20188;-69
2022/05/13 07:41:54;;;;;;;13.10;4.80;;;;;;;20.83;65.65;97854.06;5015642;28;20477;-71
2022/05/13 07:44:19;;;;;;;11.67;6.67;;;;;;;20.90;65.95;97856.75;5012111;28;20451;-69
2022/05/13 07:46:45;;;;;;;25.10;15.07;;;;;;;21.01;65.07;97868.63;5010817;28;21042;-70
2022/05/13 07:49:11;;;;;;;13.50;8.87;;;;;;;21.10;63.39;97869.25;5010433;28;20188;-70
2022/05/13 07:51:36;;;;;;;28.67;19.93;;;;;;;21.11;63.06;97873.56;4981969;28;20246;-70
2022/05/13 07:54:02;;;;;;;43.57;32.40;;;;;;;21.14;63.64;97875.84;5009922;28;20950;-69
2022/05/13 07:56:27;;;;;;;44.23;26.87;;;;;;;21.16;64.08;97881.78;5010250;28;20185;-69
2022/05/13 07:58:53;;;;;;;20.17;16.10;;;;;;;21.15;64.85;97872.94;5009785;28;20211;-70
2022/05/13 08:01:18;;;;;;;21.60;11.80;;;;;;;21.17;63.55;97864.78;5009459;28;20683;-69
2022/05/13 08:03:44;;;;;;;7.63;4.90;;;;;;;21.18;63.14;97880.53;5009716;28;20204;-69
2022/05/13 08:06:13;;;;;;;8.70;4.80;;;;;;;21.20;63.99;97879.53;5009567;28;20219;-69
2022/05/13 08:08:41;;;;;;;11.90;5.20;;;;;;;21.15;64.39;97869.47;5007410;28;20428;-68
2022/05/13 08:11:11;;;;;;;10.37;4.70;;;;;;;21.28;65.14;97872.16;5009554;28;20801;-68
2022/05/13 08:13:38;;;;;;;12.60;4.93;;;;;;;21.45;63.91;97883.22;5009268;28;20463;-69
2022/05/13 08:16:05;;;;;;;8.13;5.60;;;;;;;21.55;62.02;97881.97;5009745;28;20431;-70
2022/05/13 08:18:31;;;;;;;15.87;9.33;;;;;;;21.58;61.51;97887.72;5009751;28;20462;-69
2022/05/13 08:20:57;;;;;;;9.57;6.67;;;;;;;21.67;59.71;97890.22;5010234;28;20459;-69
2022/05/13 08:23:22;;;;;;;11.20;8.43;;;;;;;21.75;60.16;97887.31;5011665;28;20454;-71
2022/05/13 08:25:48;;;;;;;19.87;6.03;;;;;;;21.85;59.36;97889.56;5016892;28;20291;-69
2022/05/13 08:28:15;;;;;;;18.40;9.60;;;;;;;21.88;59.12;97895.28;5013208;28;20557;-69
2022/05/13 08:30:41;;;;;;;11.13;3.83;;;;;;;21.87;58.49;97893.66;5014306;28;20187;-69
2022/05/13 08:33:09;;;;;;;15.27;4.00;;;;;;;21.87;56.71;97896.31;5013388;28;20961;-70
2022/05/13 08:35:41;;;;;;;7.50;5.10;;;;;;;21.96;56.52;97883.59;5014145;28;20666;-70
2022/05/13 08:38:08;;;;;;;17.30;5.53;;;;;;;22.09;56.19;97888.03;5013520;28;20435;-69
2022/05/13 08:40:52;;;;;;;8.00;4.73;;;;;;;22.24;55.43;97895.81;5013638;28;20455;-70
2022/05/13 08:43:23;;;;;;;12.10;5.20;;;;;;;22.38;54.67;97896.59;5013872;28;20934;-70
2022/05/13 08:45:54;;;;;;;14.57;5.63;;;;;;;22.55;54.62;97899.63;5014055;28;20427;-69
2022/05/13 08:48:30;;;;;;;12.27;3.30;;;;;;;22.67;53.53;97889.09;5012996;28;20545;-69
2022/05/13 08:51:01;;;;;;;14.00;4.07;;;;;;;22.72;51.25;97891.13;4995699;28;21045;-70
2022/05/13 08:53:32;;;;;;;5.87;2.77;;;;;;;22.68;51.25;97886.19;5012109;28;20443;-69
2022/05/13 08:56:04;;;;;;;13.87;3.37;;;;;;;22.98;50.32;97887.44;4996378;28;20431;-69
2022/05/13 08:58:41;;;;;;;12.20;4.00;;;;;;;23.34;48.90;97891.34;4994665;28;20430;-69
2022/05/13 09:01:11;;;;;;;8.23;3.00;;;;;;;23.74;47.85;97882.16;4995829;28;20465;-70
2022/05/13 09:03:44;;;;;;;11.90;3.40;;;;;;;24.09;46.48;97878.94;5013248;28;20546;-71
2022/05/13 09:06:18;;;;;;;9.43;2.90;;;;;;;24.43;45.94;97878.53;5013156;28;20435;-70
2022/05/13 09:08:44;;;;;;;8.63;3.80;;;;;;;24.80;44.79;97884.63;5010741;28;20435;-69
2022/05/13 09:11:30;;;;;;;19.17;7.73;;;;;;;25.16;44.93;97879.38;5013272;28;20481;-70
2022/05/13 09:14:33;;;;;;;13.07;5.63;;;;;;;25.59;44.47;97878.28;5014731;28;20273;-68
2022/05/13 09:17:01;;;;;;;10.53;3.00;;;;;;;25.82;41.14;97879.34;4994801;28;20447;-70
2022/05/13 09:19:41;;;;;;;11.87;3.53;;;;;;;25.83;40.69;97888.19;5010881;28;20518;-69
2022/05/13 09:22:10;;;;;;;5.87;2.40;;;;;;;25.69;39.26;97890.31;4995364;28;20429;-69
2022/05/13 09:24:36;;;;;;;8.30;3.30;;;;;;;25.40;40.49;97898.19;5015732;28;20458;-70
2022/05/13 09:27:02;;;;;;;8.93;2.90;;;;;;;25.17;40.47;97902.47;5011960;28;20446;-69
2022/05/13 09:29:41;;;;;;;8.53;3.47;;;;;;;25.07;41.19;97894.97;4980930;28;20272;-70
2022/05/13 09:32:30;;;;;;;8.40;2.67;;;;;;;24.89;40.63;97901.22;5012770;28;20199;-69
2022/05/13 09:35:08;;;;;;;10.13;3.00;;;;;;;24.68;41.24;97899.81;5013337;28;21068;-70
2022/05/13 09:37:42;;;;;;;5.43;2.23;;;;;;;24.43;40.80;97899.97;4998585;28;20438;-68
2022/05/13 09:40:16;;;;;;;9.10;2.70;;;;;;;24.14;40.71;97903.16;5013285;28;20487;-70
2022/05/13 09:42:44;;;;;;;13.93;4.80;;;;;;;23.88;42.63;97899.69;5013788;28;20427;-70
2022/05/13 09:45:21;;;;;;;10.33;4.13;;;;;;;23.73;41.94;97894.69;5013131;28;20453;-70
2022/05/13 09:48:05;;;;;;;13.40;4.03;;;;;;;23.63;42.43;97891.72;5013148;28;20434;-69
2022/05/13 09:50:36;;;;;;;11.33;5.60;;;;;;;23.51;42.27;97890.78;5010273;28;20474;-68
2022/05/13 09:53:26;;;;;;;63.67;50.40;;;;;;;23.41;43.58;97902.81;5001745;28;20423;-71
2022/05/13 09:55:57;;;;;;;14.17;10.70;;;;;;;23.36;43.75;97904.50;4995176;28;20911;-70
2022/05/13 09:58:24;;;;;;;13.33;8.23;;;;;;;23.27;43.83;97904.75;5012174;28;20466;-70
2022/05/13 10:00:57;;;;;;;17.67;10.70;;;;;;;23.36;42.63;97901.81;4994809;28;20473;-69
2022/05/13 10:03:26;;;;;;;15.20;9.77;;;;;;;23.37;42.30;97895.44;5012919;28;20448;-71
2022/05/13 10:05:55;;;;;;;11.93;3.43;;;;;;;23.34;41.72;97893.19;5012147;28;20415;-71
2022/05/13 10:08:26;;;;;;;10.13;2.50;;;;;;;23.24;42.28;97893.69;4993601;28;20458;-70
2022/05/13 10:14:00;;;;;;;8.27;2.23;;;;;;;23.23;42.76;97890.19;5012959;28;20466;-70
2022/05/13 10:16:40;;;;;;;6.83;2.73;;;;;;;23.17;42.02;97897.19;5005567;28;20719;-70
2022/05/13 10:19:08;;;;;;;9.20;5.47;;;;;;;23.20;42.56;97893.31;5006114;28;20522;-70
2022/05/13 10:21:56;;;;;;;8.17;3.40;;;;;;;23.25;41.85;97892.66;5013060;28;20470;-71
2022/05/13 10:24:29;;;;;;;6.70;2.40;;;;;;;23.34;42.14;97899.34;4976941;28;20452;-70
2022/05/13 10:26:57;;;;;;;6.33;2.60;;;;;;;23.37;42.43;97898.13;5012461;28;20455;-70
2022/05/13 10:29:28;;;;;;;3.60;2.47;;;;;;;23.40;42.26;97898.50;4994510;28;20442;-68
2022/05/13 10:31:54;;;;;;;8.53;2.73;;;;;;;23.46;42.10;97894.13;4977833;28;20435;-69
2022/05/13 10:34:36;;;;;;;3.60;2.20;;;;;;;23.51;41.44;97893.47;5011906;28;20466;-69
2022/05/13 10:37:17;;;;;;;7.37;2.40;;;;;;;23.57;40.77;97892.56;5008257;28;21109;-69
2022/05/13 10:39:44;;;;;;;6.10;2.73;;;;;;;23.65;40.20;97900.34;5012355;28;20933;-69
2022/05/13 10:42:16;;;;;;;5.60;2.50;;;;;;;23.60;40.45;97900.16;5011921;28;20431;-70
2022/05/13 10:44:58;;;;;;;7.23;4.13;;;;;;;23.59;41.36;97895.84;5012293;28;20458;-69
2022/05/13 10:47:37;;;;;;;14.30;3.10;;;;;;;23.57;41.88;97897.91;5011171;28;20522;-69
2022/05/13 10:50:05;;;;;;;6.40;2.67;;;;;;;23.58;41.51;97896.88;4992144;28;20462;-68
2022/05/13 10:52:54;;;;;;;13.20;3.27;;;;;;;23.55;41.91;97897.34;5012701;28;20431;-70
2022/05/13 10:55:24;;;;;;;12.03;4.17;;;;;;;23.57;42.75;97895.25;5012115;28;20454;-71
2022/05/13 10:57:59;;;;;;;6.27;3.20;;;;;;;23.54;42.00;97899.19;5010410;28;20427;-68
2022/05/13 11:00:44;;;;;;;6.53;2.63;;;;;;;23.54;42.52;97899.19;5012670;28;20463;-69
2022/05/13 11:03:14;;;;;;;7.23;3.47;;;;;;;23.61;43.39;97899.13;5013621;28;21031;-67
2022/05/13 11:05:58;;;;;;;5.57;2.60;;;;;;;23.61;43.39;97891.09;4995329;28;20446;-68
2022/05/13 11:08:31;;;;;;;7.30;2.70;;;;;;;23.58;42.33;97897.72;4993771;28;20919;-68
2022/05/13 11:11:14;;;;;;;7.03;2.40;;;;;;;23.64;43.01;97898.69;5012054;28;20423;-70
2022/05/13 11:13:58;;;;;;;9.40;2.47;;;;;;;23.72;43.46;97895.72;5007852;28;20511;-70
2022/05/13 11:16:39;;;;;;;6.67;3.00;;;;;;;23.80;42.71;97902.66;5011214;28;20419;-70
2022/05/13 11:19:04;;;;;;;8.00;2.43;;;;;;;23.86;42.25;97895.59;5008446;28;20939;-70
2022/05/13 11:21:46;;;;;;;6.10;2.50;;;;;;;23.90;41.40;97902.16;4994036;28;20550;-69
2022/05/13 11:27:39;;;;;;;4.27;2.77;;;;;;;24.23;41.96;97884.94;4992533;28;20435;-69
2022/05/13 11:30:19;;;;;;;3.67;2.50;;;;;;;24.44;41.36;97882.84;5011688;28;20431;-68
2022/05/13 11:33:02;;;;;;;7.67;3.30;;;;;;;24.63;40.61;97884.44;5010488;28;20431;-69
2022/05/13 11:35:44;;;;;;;3.73;2.77;;;;;;;24.88;39.98;97885.38;4993959;28;20431;-70
2022/05/13 11:38:22;;;;;;;4.37;2.70;;;;;;;24.95;40.73;97889.56;5012129;28;20423;-67
2022/05/13 11:40:58;;;;;;;5.23;2.67;;;;;;;25.05;39.33;97885.53;4996586;28;20463;-69
2022/05/13 11:43:33;;;;;;;6.80;2.50;;;;;;;25.02;38.79;97881.44;4994076;28;20459;-68
2022/05/13 11:46:01;;;;;;;6.70;2.40;;;;;;;24.92;39.45;97887.38;5010199;28;20430;-70
2022/05/13 11:48:29;;;;;;;8.60;3.67;;;;;;;24.79;39.96;97882.19;5003646;28;20446;-68
2022/05/13 11:51:30;;;;;;;8.63;2.67;;;;;;;24.79;41.02;97883.00;4992565;28;20542;-70
2022/05/13 11:53:58;;;;;;;6.13;2.60;;;;;;;24.80;40.89;97883.84;5012298;28;20970;-68
2022/05/13 11:56:30;;;;;;;4.50;2.40;;;;;;;24.82;41.05;97885.22;5010285;28;20423;-69
2022/05/13 11:59:01;;;;;;;4.53;2.60;;;;;;;24.85;40.67;97886.63;5009786;28;20423;-68
2022/05/13 12:01:38;;;;;;;6.27;2.70;;;;;;;24.89;41.13;97879.78;5011037;28;20849;-69
2022/05/13 12:04:13;;;;;;;5.60;2.73;;;;;;;24.89;40.04;97877.09;5010788;28;20451;-69